Time;durP1;ratioP1;P1;durP2;ratioP2;P2;SDS_P1;SDS_P2;PMS_P1;PMS_P2;Temp;Humidity;BMP_temperature;BMP_pressure;BME280_temperature;BME280_humidity;BME280_pressure;Samples;Min_cycle;Max_cycle;Signal;HPM_P1;HPM_P2
2022/02/08 00:00:41;;;;;;;5.55;1.40;;;9.40;99.90;;;;;;5014155;28;20199;-76
2022/02/08 00:03:08;;;;;;;4.03;1.20;;;9.50;99.90;;;;;;5005189;28;20256;-76
2022/02/08 00:05:36;;;;;;;6.65;1.30;;;9.50;99.90;;;;;;4999575;28;20225;-76
2022/02/08 00:08:03;;;;;;;8.85;1.25;;;9.50;99.90;;;;;;5005507;28;20619;-76
2022/02/08 00:10:29;;;;;;;7.05;1.58;;;9.50;99.90;;;;;;5009873;28;20205;-76
2022/02/08 00:12:57;;;;;;;13.32;1.40;;;9.50;99.90;;;;;;5005211;28;20184;-76
2022/02/08 00:15:25;;;;;;;8.13;2.17;;;9.50;99.90;;;;;;4980053;28;20416;-77
2022/02/08 00:17:50;;;;;;;7.03;1.30;;;9.50;99.90;;;;;;5003714;28;20544;-77
2022/02/08 00:20:16;;;;;;;6.30;1.30;;;9.50;99.90;;;;;;5012483;28;20186;-77
2022/02/08 00:22:42;;;;;;;7.40;1.60;;;9.60;99.90;;;;;;5010188;28;20189;-76
2022/02/08 00:25:08;;;;;;;8.70;1.73;;;9.60;99.90;;;;;;4981761;28;20630;-76
2022/02/08 00:27:34;;;;;;;4.63;1.40;;;9.60;99.90;;;;;;5001999;28;20202;-76
2022/02/08 00:30:03;;;;;;;8.57;1.50;;;9.60;99.90;;;;;;5001857;28;20605;-76
2022/02/08 00:32:29;;;;;;;9.35;1.50;;;9.60;99.90;;;;;;4998200;28;20203;-77
2022/02/08 00:34:55;;;;;;;6.70;1.50;;;9.70;99.90;;;;;;4995820;28;20518;-76
2022/02/08 00:37:21;;;;;;;6.47;1.83;;;9.70;99.90;;;;;;4996378;28;20875;-76
2022/02/08 00:39:46;;;;;;;11.30;1.80;;;9.70;99.90;;;;;;5010542;28;20222;-76
2022/02/08 00:42:14;;;;;;;6.90;1.88;;;9.70;99.90;;;;;;4980544;28;20585;-76
2022/02/08 00:44:48;;;;;;;5.63;1.73;;;9.70;99.90;;;;;;5004645;28;20170;-77
2022/02/08 00:49:43;;;;;;;4.57;1.33;;;9.60;99.90;;;;;;4984270;28;20179;-76
2022/02/08 00:52:15;;;;;;;7.40;1.60;;;9.60;99.90;;;;;;4966058;28;20269;-76
2022/02/08 00:54:45;;;;;;;3.03;1.27;;;9.60;99.90;;;;;;4995697;28;20170;-76
2022/02/08 00:57:11;;;;;;;8.23;1.85;;;9.60;99.90;;;;;;4990525;28;20608;-76
2022/02/08 00:59:37;;;;;;;4.22;1.60;;;9.50;99.90;;;;;;4977717;28;20167;-76
2022/02/08 01:02:06;;;;;;;10.82;1.65;;;9.50;99.90;;;;;;4982447;28;20179;-76
2022/02/08 01:04:31;;;;;;;5.90;1.30;;;9.50;99.90;;;;;;5007135;28;20174;-76
2022/02/08 01:07:03;;;;;;;3.90;0.90;;;9.50;99.90;;;;;;5007964;28;20200;-75
2022/02/08 01:12:05;;;;;;;6.15;1.10;;;9.50;99.90;;;;;;4983581;28;20184;-76
2022/02/08 01:14:36;;;;;;;5.78;1.33;;;9.50;99.90;;;;;;4992084;28;20183;-76
2022/02/08 01:17:04;;;;;;;4.00;0.90;;;9.50;99.90;;;;;;4987582;28;20214;-75
2022/02/08 01:19:30;;;;;;;5.85;1.23;;;9.50;99.90;;;;;;5013079;28;20182;-75
2022/02/08 01:21:55;;;;;;;4.43;1.07;;;9.50;99.90;;;;;;5004867;28;20528;-75
2022/02/08 01:24:21;;;;;;;5.77;1.10;;;9.50;99.90;;;;;;4997143;28;20185;-77
2022/02/08 01:26:54;;;;;;;5.60;1.00;;;9.50;99.90;;;;;;5004991;28;20195;-76
2022/02/08 01:29:34;;;;;;;4.65;1.02;;;9.50;99.90;;;;;;4975824;28;20175;-75
2022/02/08 01:32:12;;;;;;;2.78;0.85;;;9.60;99.90;;;;;;5011319;28;20190;-75
2022/02/08 01:34:41;;;;;;;2.30;0.85;;;9.60;99.90;;;;;;4975840;28;20179;-75
2022/02/08 01:40:07;;;;;;;3.15;1.00;;;9.60;99.90;;;;;;4988171;28;20178;-75
2022/02/08 01:43:17;;;;;;;5.32;0.90;;;9.60;99.90;;;;;;4990655;28;20170;-75
2022/02/08 01:45:42;;;;;;;4.18;1.00;;;9.60;99.90;;;;;;4987115;28;20595;-76
2022/02/08 01:48:15;;;;;;;2.30;1.00;;;9.60;99.90;;;;;;4990957;28;20570;-76
2022/02/08 01:50:43;;;;;;;4.97;1.00;;;9.60;99.90;;;;;;4990616;28;20192;-76
2022/02/08 01:53:09;;;;;;;3.15;0.80;;;9.70;99.90;;;;;;4963104;28;20673;-76
2022/02/08 01:55:39;;;;;;;2.38;0.70;;;9.70;99.90;;;;;;4994603;28;20220;-76
2022/02/08 01:58:06;;;;;;;2.40;0.90;;;9.70;99.90;;;;;;4990788;28;20608;-75
2022/02/08 02:00:32;;;;;;;3.33;0.77;;;9.70;99.90;;;;;;4999230;28;20179;-76
2022/02/08 02:02:58;;;;;;;4.03;1.00;;;9.70;99.90;;;;;;5000340;28;20182;-76
2022/02/08 02:05:31;;;;;;;3.50;1.15;;;9.70;99.90;;;;;;4994773;28;20605;-76
2022/02/08 02:07:58;;;;;;;3.33;1.40;;;9.70;99.90;;;;;;5007673;28;20650;-76
2022/02/08 02:10:25;;;;;;;2.72;1.05;;;9.70;99.90;;;;;;4986532;28;20179;-76
2022/02/08 02:13:03;;;;;;;3.40;1.30;;;9.80;99.90;;;;;;4991340;28;20194;-76
2022/02/08 02:15:34;;;;;;;5.00;1.60;;;9.80;99.90;;;;;;4991425;28;20195;-76
2022/02/08 02:18:00;;;;;;;4.18;1.23;;;9.80;99.90;;;;;;5004127;28;20189;-76
2022/02/08 02:20:31;;;;;;;3.00;1.02;;;9.80;99.90;;;;;;4991089;28;20171;-76
2022/02/08 02:22:57;;;;;;;3.03;1.00;;;9.80;99.90;;;;;;4991130;28;20175;-76
2022/02/08 02:25:32;;;;;;;2.67;0.97;;;9.80;99.90;;;;;;4975017;28;20195;-76
2022/02/08 02:28:01;;;;;;;2.40;0.80;;;9.80;99.90;;;;;;4991140;28;20186;-76
2022/02/08 02:30:30;;;;;;;5.60;0.80;;;9.80;99.90;;;;;;4977179;28;20171;-76
2022/02/08 02:32:59;;;;;;;3.33;0.93;;;9.80;99.90;;;;;;4975501;28;20171;-76
2022/02/08 02:35:28;;;;;;;1.80;0.80;;;9.80;99.90;;;;;;4966562;28;20241;-76
2022/02/08 02:37:57;;;;;;;2.47;0.80;;;9.70;99.90;;;;;;4974899;28;20167;-76
2022/02/08 02:40:24;;;;;;;2.15;0.90;;;9.70;99.90;;;;;;4990205;28;20214;-75
2022/02/08 02:42:51;;;;;;;3.22;0.90;;;9.70;99.90;;;;;;4994275;28;20221;-75
2022/02/08 02:45:20;;;;;;;2.47;0.90;;;9.70;99.90;;;;;;5003461;28;20209;-75
2022/02/08 02:47:52;;;;;;;9.02;1.30;;;9.70;99.90;;;;;;4978142;28;20174;-76
2022/02/08 02:50:22;;;;;;;1.80;0.70;;;9.70;99.90;;;;;;4974445;28;20191;-75
2022/02/08 02:52:48;;;;;;;2.72;0.70;;;9.80;99.90;;;;;;4962312;28;20709;-75
2022/02/08 02:55:16;;;;;;;3.85;0.77;;;9.80;99.90;;;;;;4997878;28;20205;-75
2022/02/08 02:57:45;;;;;;;2.90;1.17;;;9.80;99.90;;;;;;4978536;28;20546;-76
2022/02/08 03:00:26;;;;;;;2.45;0.73;;;9.80;99.90;;;;;;4998918;28;20546;-76
2022/02/08 03:03:00;;;;;;;3.15;0.82;;;9.70;99.90;;;;;;4997068;28;20366;-76
2022/02/08 03:19:02;;;;;;;2.47;0.85;;;9.80;99.90;;;;;;4986081;28;20179;-75
2022/02/08 03:21:28;;;;;;;4.73;1.00;;;9.80;99.90;;;;;;4999157;28;20210;-75
2022/02/08 03:23:55;;;;;;;3.05;0.90;;;9.90;99.90;;;;;;4994328;28;20202;-76
2022/02/08 03:26:22;;;;;;;4.30;1.10;;;9.90;99.90;;;;;;4988578;28;20206;-75
2022/02/08 03:28:55;;;;;;;2.15;0.80;;;9.90;99.90;;;;;;4970929;28;20545;-75
2022/02/08 03:31:31;;;;;;;2.85;1.52;;;9.90;99.90;;;;;;4986533;28;20192;-76
2022/02/08 03:33:57;;;;;;;3.15;0.73;;;9.90;99.90;;;;;;4997361;28;20174;-75
2022/02/08 03:36:24;;;;;;;2.40;0.75;;;9.90;99.90;;;;;;4997282;28;20626;-75
2022/02/08 03:39:16;;;;;;;3.90;0.80;;;10.00;99.90;;;;;;4996003;28;20163;-76
2022/02/08 03:41:53;;;;;;;1.35;0.68;;;10.00;99.90;;;;;;4986832;28;20266;-76
2022/02/08 03:44:31;;;;;;;2.22;0.68;;;10.10;99.90;;;;;;4997337;28;20281;-76
2022/02/08 03:47:04;;;;;;;2.88;0.70;;;10.10;99.90;;;;;;4969103;28;20214;-75
2022/02/08 03:49:31;;;;;;;1.73;0.70;;;10.20;99.90;;;;;;4978310;28;20187;-76
2022/02/08 03:52:01;;;;;;;1.70;0.80;;;10.20;99.90;;;;;;5005729;28;20179;-76
2022/02/08 03:54:29;;;;;;;1.20;0.60;;;10.20;99.90;;;;;;4977487;28;20206;-75
2022/02/08 03:56:55;;;;;;;1.77;0.80;;;10.30;99.90;;;;;;4982122;28;20233;-75
2022/02/08 03:59:21;;;;;;;1.97;0.77;;;10.30;99.90;;;;;;4991435;28;20186;-75
2022/02/08 04:07:08;;;;;;;1.88;0.80;;;10.40;99.90;;;;;;5006922;28;20300;-75
2022/02/08 04:09:34;;;;;;;2.35;0.80;;;10.40;99.90;;;;;;4993730;28;20305;-76
2022/02/08 04:12:04;;;;;;;1.30;0.60;;;10.50;99.90;;;;;;5002509;28;20257;-75
2022/02/08 04:17:17;;;;;;;1.70;0.70;;;10.50;99.90;;;;;;5008148;28;20210;-75
2022/02/08 04:20:16;;;;;;;1.60;0.90;;;10.50;99.90;;;;;;4992943;28;20178;-76
2022/02/08 04:41:59;;;;;;;1.60;0.70;;;10.70;99.90;;;;;;5001254;28;20190;-75
2022/02/08 04:44:41;;;;;;;1.40;0.70;;;10.70;99.90;;;;;;4994623;28;20167;-75
2022/02/08 04:47:22;;;;;;;1.92;0.70;;;10.70;99.90;;;;;;5009731;28;20213;-75
2022/02/08 04:49:50;;;;;;;1.80;0.80;;;10.70;99.90;;;;;;4997930;28;20190;-76
2022/02/08 04:52:17;;;;;;;1.40;0.75;;;10.70;99.90;;;;;;4994237;28;20187;-76
2022/02/08 04:54:52;;;;;;;2.47;0.80;;;10.70;99.90;;;;;;4996467;28;20190;-75
2022/02/08 05:26:32;;;;;;;1.20;0.70;;;10.80;99.90;;;;;;5010155;28;20189;-76
2022/02/08 05:40:59;;;;;;;1.80;1.13;;;10.70;99.90;;;;;;5003286;28;20190;-75
2022/02/08 05:43:37;;;;;;;1.90;0.90;;;10.70;99.90;;;;;;5004995;28;20372;-75
2022/02/08 05:48:40;;;;;;;3.20;1.52;;;10.70;99.90;;;;;;5008281;28;20166;-75
2022/02/08 05:51:14;;;;;;;2.60;1.27;;;10.70;99.90;;;;;;5015824;28;20183;-75
2022/02/08 05:53:44;;;;;;;1.75;1.30;;;10.70;99.90;;;;;;5017625;28;20534;-76
2022/02/08 05:56:12;;;;;;;1.50;0.90;;;10.70;99.90;;;;;;5025858;28;20510;-76
2022/02/08 05:58:41;;;;;;;2.63;1.00;;;10.70;99.90;;;;;;5018749;28;20185;-76
2022/02/08 06:01:07;;;;;;;2.00;1.55;;;10.70;99.90;;;;;;4995181;28;20631;-76
2022/02/08 06:03:51;;;;;;;2.83;1.20;;;10.70;99.90;;;;;;5026396;28;20371;-75
2022/02/08 06:06:19;;;;;;;2.17;1.27;;;10.70;99.90;;;;;;5008289;28;20252;-76
2022/02/08 06:08:44;;;;;;;2.30;1.17;;;10.70;99.90;;;;;;5013807;28;20559;-75
2022/02/08 06:11:15;;;;;;;2.50;1.23;;;10.70;99.90;;;;;;5007942;28;20171;-75
2022/02/08 06:13:42;;;;;;;3.75;2.10;;;10.70;99.90;;;;;;4979122;28;20187;-76
2022/02/08 06:16:16;;;;;;;3.33;1.40;;;10.80;99.90;;;;;;4992053;28;20289;-75
2022/02/08 06:18:42;;;;;;;2.40;1.40;;;10.70;99.90;;;;;;4994419;28;20317;-75
2022/02/08 06:21:08;;;;;;;4.83;1.90;;;10.70;99.90;;;;;;4997096;28;20277;-75
2022/02/08 06:23:34;;;;;;;4.20;1.60;;;10.80;99.90;;;;;;4994247;28;20280;-75
2022/02/08 06:26:00;;;;;;;1.90;1.57;;;10.70;99.90;;;;;;4999943;28;20341;-75
2022/02/08 06:28:26;;;;;;;4.18;1.63;;;10.70;99.90;;;;;;4993446;28;20635;-75
2022/02/08 06:30:52;;;;;;;2.73;1.60;;;10.70;99.90;;;;;;4999603;28;20262;-75
2022/02/08 06:33:19;;;;;;;1.90;1.40;;;10.70;99.90;;;;;;4983843;28;20248;-75
2022/02/08 06:35:45;;;;;;;2.85;1.00;;;10.70;99.90;;;;;;5010348;28;20663;-76
2022/02/08 06:38:14;;;;;;;3.83;1.20;;;10.70;99.90;;;;;;4990815;28;20530;-77
2022/02/08 06:40:42;;;;;;;1.95;1.48;;;10.70;99.90;;;;;;5018740;28;20555;-77
2022/02/08 06:43:09;;;;;;;2.67;1.70;;;10.70;99.90;;;;;;5021529;28;20212;-75
2022/02/08 06:45:35;;;;;;;3.17;1.23;;;10.70;99.90;;;;;;5013481;28;20217;-75
2022/02/08 06:48:03;;;;;;;2.80;1.20;;;10.70;99.90;;;;;;4990927;28;20175;-75
2022/02/08 06:50:29;;;;;;;2.28;1.25;;;10.70;99.90;;;;;;4994568;28;20564;-76
2022/02/08 06:52:55;;;;;;;2.58;1.40;;;10.70;99.90;;;;;;4975580;28;20171;-74
2022/02/08 06:55:24;;;;;;;1.60;1.02;;;10.70;99.90;;;;;;5007390;28;20202;-75
2022/02/08 06:58:08;;;;;;;3.30;1.30;;;10.60;99.90;;;;;;5003350;28;20232;-74
2022/02/08 07:00:38;;;;;;;1.88;1.20;;;10.60;99.90;;;;;;5007387;28;20257;-75
2022/02/08 07:03:12;;;;;;;2.65;1.95;;;10.60;99.90;;;;;;4989986;28;20660;-75
2022/02/08 07:05:38;;;;;;;1.67;1.10;;;10.60;99.90;;;;;;4992264;28;20245;-74
2022/02/08 07:08:05;;;;;;;2.50;1.30;;;10.60;99.90;;;;;;5010727;28;20521;-75
2022/02/08 07:10:32;;;;;;;2.25;1.25;;;10.70;99.90;;;;;;5003019;28;20265;-76
2022/02/08 07:12:59;;;;;;;4.25;1.15;;;10.60;99.90;;;;;;5007927;28;20266;-75
2022/02/08 07:15:25;;;;;;;2.08;1.33;;;10.70;99.90;;;;;;4993550;28;20198;-75
2022/02/08 07:17:51;;;;;;;2.83;1.10;;;10.60;99.90;;;;;;5001571;28;20237;-74
2022/02/08 07:20:18;;;;;;;2.70;1.20;;;10.60;99.90;;;;;;5000878;28;20589;-75
2022/02/08 07:22:44;;;;;;;2.55;0.90;;;10.60;99.90;;;;;;4992296;28;20179;-74
2022/02/08 07:25:11;;;;;;;2.27;1.30;;;10.60;99.90;;;;;;5007067;28;20251;-74
2022/02/08 07:27:36;;;;;;;2.60;1.00;;;10.60;99.90;;;;;;5011070;28;20601;-76
2022/02/08 07:30:10;;;;;;;2.03;1.17;;;10.70;99.90;;;;;;4952972;28;20670;-76
2022/02/08 07:32:38;;;;;;;2.97;1.10;;;10.70;99.90;;;;;;5007271;28;20171;-75
2022/02/08 07:37:45;;;;;;;2.58;1.08;;;10.70;99.90;;;;;;5005414;28;20320;-75
2022/02/08 07:40:26;;;;;;;1.92;0.90;;;10.70;99.90;;;;;;5000346;28;20175;-74
2022/02/08 07:42:51;;;;;;;1.40;0.77;;;10.70;99.90;;;;;;5002787;28;20198;-74
2022/02/08 07:45:18;;;;;;;4.32;1.00;;;10.70;99.90;;;;;;5002368;28;20253;-74
2022/02/08 07:47:44;;;;;;;1.90;1.00;;;10.70;99.90;;;;;;4997710;28;20167;-75
2022/02/08 07:50:10;;;;;;;2.10;0.90;;;10.80;99.90;;;;;;5010087;28;20573;-75
2022/02/08 07:52:35;;;;;;;1.60;0.90;;;10.80;99.90;;;;;;5006691;28;20189;-75
2022/02/08 07:55:01;;;;;;;1.70;1.10;;;10.80;99.90;;;;;;5002009;28;20226;-75
2022/02/08 07:57:27;;;;;;;3.43;1.00;;;10.80;99.90;;;;;;4990505;28;20241;-75
2022/02/08 07:59:53;;;;;;;2.50;1.03;;;10.80;99.90;;;;;;5003817;28;20574;-75
2022/02/08 08:02:18;;;;;;;1.50;1.03;;;10.80;99.90;;;;;;5006171;28;20202;-75
2022/02/08 08:04:44;;;;;;;1.60;1.00;;;10.90;99.90;;;;;;5004256;28;20182;-74
2022/02/08 08:07:10;;;;;;;3.17;1.27;;;10.90;99.90;;;;;;4995144;28;20178;-77
2022/02/08 08:09:40;;;;;;;2.10;0.97;;;10.90;99.90;;;;;;4994818;28;20258;-77
2022/02/08 08:12:07;;;;;;;2.30;1.30;;;11.00;99.90;;;;;;5005134;28;20167;-78
2022/02/08 08:14:33;;;;;;;2.47;1.40;;;11.00;99.90;;;;;;4985787;28;21108;-77
2022/02/08 08:17:34;;;;;;;2.17;1.43;;;11.10;99.90;;;;;;5005411;28;20206;-77
2022/02/08 08:19:47;;;;;;;1.65;1.20;;;11.10;99.90;;;;;;4998737;28;20174;-78
2022/02/08 08:22:13;;;;;;;2.08;1.13;;;11.20;99.90;;;;;;5005274;28;20254;-77
2022/02/08 08:24:39;;;;;;;2.97;1.30;;;11.30;99.90;;;;;;5005523;28;20577;-78
2022/02/08 08:27:07;;;;;;;2.75;1.35;;;11.30;99.90;;;;;;4984766;28;20729;-77
2022/02/08 08:29:33;;;;;;;3.07;1.40;;;11.30;99.90;;;;;;5005923;28;20204;-76
2022/02/08 08:31:59;;;;;;;3.67;1.85;;;11.30;99.90;;;;;;4984547;28;20578;-75
2022/02/08 08:34:25;;;;;;;6.13;3.47;;;11.40;99.90;;;;;;5006842;28;20179;-77
2022/02/08 08:36:52;;;;;;;3.90;2.00;;;11.40;99.90;;;;;;4986244;28;20206;-77
2022/02/08 08:39:25;;;;;;;4.07;1.67;;;11.40;99.90;;;;;;4978209;28;20792;-77
2022/02/08 08:42:13;;;;;;;2.92;1.92;;;11.40;99.90;;;;;;4984928;28;20190;-77
2022/02/08 08:50:32;;;;;;;5.05;3.40;;;11.50;99.90;;;;;;5001614;28;20174;-76
2022/02/08 08:52:58;;;;;;;3.95;2.00;;;11.50;99.90;;;;;;4989734;28;20183;-77
2022/02/08 08:55:24;;;;;;;4.15;1.90;;;11.60;99.90;;;;;;4991412;28;20202;-77
2022/02/08 08:57:50;;;;;;;2.37;1.40;;;11.60;99.90;;;;;;4985095;28;20655;-77
2022/02/08 09:00:16;;;;;;;3.47;1.63;;;11.70;99.90;;;;;;4995695;28;20194;-77
2022/02/08 09:02:42;;;;;;;2.65;1.60;;;11.70;99.90;;;;;;5001522;28;20582;-76
2022/02/08 09:05:12;;;;;;;3.90;1.83;;;11.70;99.90;;;;;;5010375;28;20194;-78
2022/02/08 09:07:41;;;;;;;4.07;2.08;;;11.80;99.90;;;;;;4997614;28;20591;-79
2022/02/08 09:10:08;;;;;;;3.05;1.83;;;11.80;99.90;;;;;;4967745;28;20187;-79
2022/02/08 09:12:54;;;;;;;4.20;1.80;;;11.80;99.90;;;;;;4995149;28;20512;-79
2022/02/08 09:23:43;;;;;;;2.50;1.10;;;12.00;99.90;;;;;;4984276;28;20368;-76
2022/02/08 09:28:55;;;;;;;3.70;1.15;;;12.10;99.90;;;;;;5002078;28;20227;-76
2022/02/08 09:31:21;;;;;;;1.88;1.20;;;12.20;99.90;;;;;;4985943;28;20562;-77
2022/02/08 09:33:50;;;;;;;3.00;1.37;;;12.20;99.90;;;;;;5004307;28;20185;-77
2022/02/08 09:36:17;;;;;;;2.35;1.20;;;12.20;99.90;;;;;;5004259;28;20225;-77
2022/02/08 09:38:43;;;;;;;2.50;1.27;;;12.30;99.90;;;;;;5003881;28;20174;-77
2022/02/08 09:41:11;;;;;;;3.63;1.50;;;12.30;99.90;;;;;;5000924;28;20186;-77
2022/02/08 09:43:39;;;;;;;3.13;1.40;;;12.40;99.90;;;;;;4973447;28;21162;-78
2022/02/08 09:46:06;;;;;;;7.47;3.05;;;12.40;99.90;;;;;;5003531;28;20209;-78
2022/02/08 09:48:41;;;;;;;4.47;1.65;;;12.50;99.90;;;;;;4991140;28;20541;-77
2022/02/08 09:51:08;;;;;;;4.60;2.10;;;12.50;99.90;;;;;;4983316;28;20182;-77
2022/02/08 09:53:35;;;;;;;4.28;1.90;;;12.60;99.90;;;;;;4969938;28;20201;-77
2022/02/08 09:56:03;;;;;;;5.43;1.55;;;12.60;99.90;;;;;;5001259;28;20218;-78
2022/02/08 09:58:29;;;;;;;4.53;1.38;;;12.60;99.90;;;;;;4985699;28;20178;-77
2022/02/08 10:01:06;;;;;;;2.47;1.37;;;12.70;99.90;;;;;;5004063;28;20706;-78
2022/02/08 10:03:32;;;;;;;2.20;1.20;;;12.70;99.90;;;;;;5010167;28;20592;-77
2022/02/08 10:05:58;;;;;;;2.70;1.50;;;12.70;99.90;;;;;;5014809;28;20198;-76
2022/02/08 10:08:24;;;;;;;4.80;1.60;;;12.80;99.90;;;;;;5009479;28;21200;-76
2022/02/08 10:10:50;;;;;;;2.07;1.20;;;12.80;99.90;;;;;;5003604;28;20241;-76
2022/02/08 10:14:18;;;;;;;2.10;1.10;;;12.80;99.90;;;;;;5002162;28;20577;-76
2022/02/08 10:19:44;;;;;;;3.37;1.93;;;12.90;99.90;;;;;;5014218;28;20175;-76
2022/02/08 10:22:07;;;;;;;3.85;1.45;;;13.00;99.90;;;;;;5011222;28;20596;-77
2022/02/08 10:24:36;;;;;;;2.30;1.42;;;13.00;99.90;;;;;;4989217;28;20182;-76
2022/02/08 10:27:17;;;;;;;2.60;1.43;;;13.00;99.90;;;;;;4986328;28;20214;-76
2022/02/08 10:30:08;;;;;;;3.60;1.20;;;13.10;99.90;;;;;;4999839;28;20745;-77
2022/02/08 10:38:08;;;;;;;2.80;0.70;;;13.10;99.90;;;;;;5001981;28;20681;-77
2022/02/08 10:40:38;;;;;;;2.63;0.87;;;13.20;99.90;;;;;;5005994;28;21120;-76
2022/02/08 10:43:07;;;;;;;1.50;0.80;;;13.20;99.90;;;;;;4998843;28;21122;-77
2022/02/08 10:45:38;;;;;;;1.93;0.90;;;13.20;99.90;;;;;;4996100;28;20625;-77
2022/02/08 10:48:21;;;;;;;2.30;1.07;;;13.30;99.90;;;;;;4996884;28;20589;-77
2022/02/08 10:50:52;;;;;;;2.60;1.00;;;13.30;99.90;;;;;;4993718;28;20613;-76
2022/02/08 10:53:20;;;;;;;1.70;1.00;;;13.40;99.90;;;;;;5005833;28;20214;-77
2022/02/08 10:56:00;;;;;;;4.60;0.90;;;13.50;99.90;;;;;;5005107;28;20309;-77
2022/02/08 10:58:35;;;;;;;2.83;0.90;;;13.50;99.90;;;;;;5003204;28;20585;-76
2022/02/08 11:01:09;;;;;;;2.20;1.00;;;13.60;99.90;;;;;;5000152;28;20592;-76
2022/02/08 11:03:46;;;;;;;4.03;0.87;;;13.60;99.90;;;;;;5003285;28;20978;-77
2022/02/08 11:06:20;;;;;;;2.10;1.00;;;13.60;99.90;;;;;;4997150;28;20664;-77
2022/02/08 11:14:13;;;;;;;3.70;1.27;;;13.70;99.90;;;;;;4994921;28;20668;-77
2022/02/08 11:19:51;;;;;;;2.67;1.30;;;13.80;99.90;;;;;;4994652;28;20739;-77
2022/02/08 11:22:42;;;;;;;3.27;0.97;;;13.80;99.90;;;;;;4973836;28;20621;-77
2022/02/08 11:25:41;;;;;;;3.43;1.17;;;13.90;99.90;;;;;;5004059;28;20732;-77
2022/02/08 11:28:23;;;;;;;2.50;1.03;;;13.90;99.90;;;;;;4994524;28;20625;-77
2022/02/08 11:45:11;;;;;;;2.60;1.13;;;14.20;99.90;;;;;;4998375;28;20997;-77
2022/02/08 12:10:17;;;;;;;3.43;1.10;;;14.40;99.90;;;;;;4986767;28;20574;-77
2022/02/08 12:49:24;;;;;;;1.50;0.80;;;15.00;99.90;;;;;;5009403;28;20635;-77
2022/02/08 13:05:59;;;;;;;2.80;0.70;;;14.90;99.90;;;;;;5003846;28;20581;-76
2022/02/08 14:08:01;;;;;;;4.47;1.53;;;14.90;99.90;;;;;;5002537;28;21135;-77
2022/02/08 14:11:22;;;;;;;2.60;1.03;;;14.90;99.90;;;;;;4966598;28;20736;-77
2022/02/08 14:21:17;;;;;;;3.20;1.50;;;14.80;99.90;;;;;;5002461;28;21016;-78
2022/02/08 15:09:44;;;;;;;2.27;0.60;;;14.80;99.90;;;;;;5005560;28;20640;-76
2022/02/08 15:12:14;;;;;;;2.90;1.13;;;14.80;99.90;;;;;;5002848;28;20610;-77
2022/02/08 15:15:06;;;;;;;3.67;1.47;;;14.70;99.90;;;;;;4991801;28;21152;-77
2022/02/08 15:17:29;;;;;;;2.70;1.00;;;14.70;99.90;;;;;;4979642;28;20640;-77
2022/02/08 15:19:58;;;;;;;2.13;0.80;;;14.70;99.90;;;;;;5006312;28;20631;-77
2022/02/08 15:22:24;;;;;;;1.80;0.80;;;14.70;99.90;;;;;;4995856;28;20981;-77
2022/02/08 15:24:51;;;;;;;2.03;0.83;;;14.70;99.90;;;;;;5007486;28;20957;-78
2022/02/08 15:27:20;;;;;;;1.30;0.77;;;14.60;99.90;;;;;;5006811;28;20574;-77
2022/02/08 15:29:49;;;;;;;1.30;0.80;;;14.60;99.90;;;;;;5007686;28;21508;-77
2022/02/08 15:32:15;;;;;;;3.73;1.13;;;14.60;99.90;;;;;;4987280;28;20998;-77
2022/02/08 15:34:45;;;;;;;1.83;0.70;;;14.60;99.90;;;;;;5004071;28;20617;-78
2022/02/08 15:37:11;;;;;;;2.50;0.87;;;14.50;99.90;;;;;;5003526;28;20636;-77
2022/02/08 15:39:37;;;;;;;2.07;1.03;;;14.40;99.90;;;;;;5004673;28;20580;-77
2022/02/08 15:42:04;;;;;;;2.57;0.70;;;14.40;99.90;;;;;;5008819;28;20553;-79
2022/02/08 15:44:31;;;;;;;1.60;0.70;;;14.30;99.90;;;;;;4990270;28;20581;-78
2022/02/08 15:47:03;;;;;;;4.50;2.10;;;14.30;99.90;;;;;;5007843;28;20620;-78
2022/02/08 15:49:30;;;;;;;2.80;1.60;;;14.20;99.90;;;;;;4979250;28;20586;-78
2022/02/08 15:52:10;;;;;;;2.60;1.67;;;14.10;99.90;;;;;;4989545;28;20601;-77
2022/02/08 15:54:40;;;;;;;1.73;1.10;;;14.10;99.90;;;;;;5001825;28;21121;-77
2022/02/08 15:57:30;;;;;;;1.80;0.90;;;14.00;99.90;;;;;;5005236;28;20649;-76
2022/02/08 16:00:34;;;;;;;1.80;1.10;;;14.00;99.90;;;;;;4987118;28;20950;-77
2022/02/08 16:08:14;;;;;;;2.07;1.17;;;13.90;99.90;;;;;;5011411;28;20599;-77
2022/02/08 16:10:55;;;;;;;1.27;0.80;;;13.80;99.90;;;;;;5007853;28;20565;-77
2022/02/08 16:18:23;;;;;;;2.00;0.80;;;13.60;99.90;;;;;;5024767;28;20620;-77
2022/02/08 16:21:25;;;;;;;2.27;0.80;;;13.60;99.90;;;;;;5011027;28;20601;-77
2022/02/08 16:26:32;;;;;;;2.20;1.40;;;13.50;99.90;;;;;;4996069;28;20617;-76
2022/02/08 16:31:58;;;;;;;3.80;1.40;;;13.50;99.90;;;;;;5013235;28;20655;-77
2022/02/08 16:56:00;;;;;;;3.10;0.80;;;13.40;99.90;;;;;;5008950;28;20769;-76
2022/02/08 16:58:40;;;;;;;5.13;1.00;;;13.40;99.90;;;;;;4988575;28;20268;-77
2022/02/08 17:01:18;;;;;;;2.27;0.83;;;13.40;99.90;;;;;;5003613;28;20193;-76
2022/02/08 17:03:46;;;;;;;2.90;1.00;;;13.40;99.90;;;;;;5003782;28;20728;-76
2022/02/08 17:06:15;;;;;;;2.80;1.70;;;13.40;99.90;;;;;;4985062;28;20222;-78
2022/02/08 17:08:41;;;;;;;4.33;3.20;;;13.30;99.90;;;;;;5005229;28;20605;-77
2022/02/08 17:11:08;;;;;;;4.80;3.90;;;13.30;99.90;;;;;;4992683;28;20598;-77
2022/02/08 17:13:48;;;;;;;4.73;2.10;;;13.30;99.90;;;;;;5007348;28;20178;-77
2022/02/08 17:16:39;;;;;;;3.20;1.23;;;13.40;99.90;;;;;;5001955;28;21029;-77
2022/02/08 17:46:23;;;;;;;4.43;0.90;;;13.30;99.90;;;;;;5004950;28;20249;-78
2022/02/08 17:48:50;;;;;;;1.47;0.70;;;13.30;99.90;;;;;;5000748;28;20995;-78
2022/02/08 17:51:16;;;;;;;2.50;0.90;;;13.30;99.90;;;;;;5007953;28;20590;-78
2022/02/08 17:53:41;;;;;;;2.97;1.00;;;13.30;99.90;;;;;;5004290;28;20647;-78
2022/02/08 17:56:07;;;;;;;2.70;1.50;;;13.30;99.90;;;;;;4982946;28;20214;-77
2022/02/08 17:58:35;;;;;;;3.40;2.50;;;13.30;99.90;;;;;;5003935;28;20660;-77
2022/02/08 18:01:01;;;;;;;3.60;2.60;;;13.30;99.90;;;;;;5006968;28;20258;-78
2022/02/08 18:03:27;;;;;;;4.83;2.80;;;13.30;99.90;;;;;;5008783;28;20621;-77
2022/02/08 18:05:52;;;;;;;4.10;2.00;;;13.30;99.90;;;;;;4971105;28;20297;-77
2022/02/08 18:08:21;;;;;;;7.10;5.10;;;13.30;99.90;;;;;;5001317;28;20599;-77
2022/02/08 18:10:54;;;;;;;5.00;3.87;;;13.30;99.90;;;;;;4990604;28;20769;-77
2022/02/08 18:13:21;;;;;;;5.65;3.05;;;13.20;99.90;;;;;;5000076;28;20989;-77
2022/02/08 18:15:47;;;;;;;4.30;3.60;;;13.30;99.90;;;;;;5000794;28;20235;-78
2022/02/08 18:18:25;;;;;;;7.40;5.10;;;13.20;99.90;;;;;;5003623;28;21010;-77
2022/02/08 18:21:06;;;;;;;5.85;5.10;;;13.30;99.90;;;;;;5000082;28;20256;-78
2022/02/08 18:52:47;;;;;;;4.65;1.25;;;13.10;99.90;;;;;;4998627;28;20590;-75
2022/02/08 19:12:19;;;;;;;10.40;7.57;;;13.00;99.90;;;;;;5003275;28;20604;-78
2022/02/08 19:17:36;;;;;;;12.30;8.27;;;13.00;99.90;;;;;;5004983;28;20252;-78
2022/02/08 19:20:20;;;;;;;6.10;4.40;;;13.00;99.90;;;;;;5004327;28;20586;-78
2022/02/08 19:22:46;;;;;;;3.63;2.10;;;13.00;99.90;;;;;;4985757;28;20639;-78
2022/02/08 19:25:11;;;;;;;3.83;1.97;;;13.00;99.90;;;;;;4999850;28;20694;-78
2022/02/08 19:27:40;;;;;;;7.30;4.77;;;13.00;99.90;;;;;;5007208;28;20178;-78
2022/02/08 19:30:06;;;;;;;7.87;5.30;;;13.00;99.90;;;;;;5005422;28;20187;-78
2022/02/08 19:32:32;;;;;;;3.75;3.30;;;13.00;99.90;;;;;;4995545;28;20577;-78
2022/02/08 19:34:58;;;;;;;3.20;2.90;;;13.00;99.90;;;;;;4997402;28;20189;-78
2022/02/08 19:37:24;;;;;;;6.70;2.70;;;13.00;99.90;;;;;;5005293;28;20259;-78
2022/02/08 19:39:50;;;;;;;3.92;2.00;;;13.00;99.90;;;;;;5007843;28;20194;-78
2022/02/08 19:42:16;;;;;;;2.55;1.23;;;13.00;99.90;;;;;;5007439;28;20174;-77
2022/02/08 19:44:42;;;;;;;1.70;1.30;;;13.00;99.90;;;;;;5005926;28;20183;-77
2022/02/08 19:47:08;;;;;;;3.90;1.03;;;13.00;99.90;;;;;;5006190;28;20199;-77
2022/02/08 19:49:34;;;;;;;2.33;1.00;;;13.00;99.90;;;;;;4991977;28;20640;-77
2022/02/08 19:52:02;;;;;;;2.00;1.20;;;13.00;99.90;;;;;;5009470;28;20520;-77
2022/02/08 19:54:34;;;;;;;1.97;0.93;;;13.00;99.90;;;;;;5002794;28;20689;-77
2022/02/08 19:57:06;;;;;;;2.70;1.17;;;13.10;99.90;;;;;;4987881;28;20666;-77
2022/02/08 19:59:38;;;;;;;6.35;4.18;;;13.10;99.90;;;;;;4983708;28;20593;-77
2022/02/08 20:02:09;;;;;;;5.03;3.00;;;13.10;99.90;;;;;;5010501;28;20187;-77
2022/02/08 20:04:35;;;;;;;2.92;2.63;;;13.00;99.90;;;;;;4985482;28;20190;-76
2022/02/08 20:07:02;;;;;;;3.50;1.60;;;13.00;99.90;;;;;;5003280;28;20203;-77
2022/02/08 20:09:28;;;;;;;2.08;1.25;;;13.00;99.90;;;;;;5010421;28;20701;-76
2022/02/08 20:11:55;;;;;;;1.70;1.00;;;13.10;99.90;;;;;;5005251;28;20823;-76
2022/02/08 20:14:21;;;;;;;3.75;2.20;;;13.10;99.90;;;;;;5010381;28;20583;-76
2022/02/08 20:16:48;;;;;;;3.47;1.77;;;13.10;99.90;;;;;;5007198;28;20211;-76
2022/02/08 20:19:16;;;;;;;3.60;1.10;;;13.10;99.90;;;;;;5011355;28;20225;-76
2022/02/08 20:21:43;;;;;;;2.00;1.00;;;13.00;99.90;;;;;;5008817;28;20581;-76
2022/02/08 20:24:12;;;;;;;1.95;1.17;;;13.00;99.90;;;;;;5005715;28;20584;-76
2022/02/08 20:29:08;;;;;;;1.33;0.90;;;13.00;99.90;;;;;;5001420;28;20962;-77
2022/02/08 20:31:34;;;;;;;2.23;1.17;;;13.00;99.90;;;;;;5006599;28;20600;-77